createdAt,value
2019-03-21T00:00:11.144Z,10.80
2019-03-21T00:01:11.118Z,10.70
2019-03-21T00:02:11.131Z,10.80
2019-03-21T00:03:11.098Z,11.30
2019-03-21T00:04:11.086Z,10.60
2019-03-21T00:05:11.090Z,10.90
2019-03-21T00:06:11.066Z,10.70
2019-03-21T00:07:11.263Z,11.10
2019-03-21T00:08:11.063Z,10.50
2019-03-21T00:09:11.037Z,10.90
2019-03-21T00:10:11.023Z,10.90
2019-03-21T00:11:11.029Z,11.10
2019-03-21T00:12:11.002Z,11.50
2019-03-21T00:13:10.988Z,12.40
2019-03-21T00:14:11.001Z,11.90
2019-03-21T00:15:10.971Z,12.70
2019-03-21T00:16:13.459Z,12.90
2019-03-21T00:17:10.964Z,12.50
2019-03-21T00:18:10.938Z,11.90
2019-03-21T00:19:10.926Z,11.60
2019-03-21T00:20:10.943Z,11.20
2019-03-21T00:21:10.925Z,10.40
2019-03-21T00:22:10.894Z,10.40
2019-03-21T00:23:10.889Z,10.90
2019-03-21T00:24:10.875Z,11.10
2019-03-21T00:25:10.869Z,10.40
2019-03-21T00:26:10.866Z,10.80
2019-03-21T00:27:10.876Z,12.20
2019-03-21T00:28:11.058Z,11.00
2019-03-21T00:29:10.819Z,11.80
2019-03-21T00:30:10.809Z,11.90
2019-03-21T00:31:10.811Z,12.70
2019-03-21T00:32:10.797Z,12.00
2019-03-21T00:33:10.795Z,11.40
2019-03-21T00:34:10.786Z,12.50
2019-03-21T00:35:10.756Z,12.10
2019-03-21T00:36:10.760Z,11.40
2019-03-21T00:37:10.737Z,11.90
2019-03-21T00:38:10.756Z,11.70
2019-03-21T00:39:10.720Z,11.00
2019-03-21T00:40:10.703Z,10.80
2019-03-21T00:41:10.693Z,11.30
2019-03-21T00:42:10.683Z,10.80
2019-03-21T00:43:10.697Z,11.20
2019-03-21T00:44:18.120Z,12.00
2019-03-21T00:45:11.651Z,12.20
2019-03-21T00:46:10.641Z,13.80
2019-03-21T00:47:10.634Z,13.20
2019-03-21T00:48:10.622Z,14.00
2019-03-21T00:49:10.623Z,13.30
2019-03-21T00:50:10.611Z,14.10
2019-03-21T00:51:10.590Z,13.70
2019-03-21T00:52:10.577Z,12.80
2019-03-21T00:53:10.586Z,13.70
2019-03-21T00:54:10.557Z,13.60
2019-03-21T00:55:10.548Z,13.20
2019-03-21T00:56:10.559Z,14.00
2019-03-21T00:57:10.562Z,12.80
2019-03-21T00:58:10.514Z,13.40
2019-03-21T00:59:10.526Z,14.20
2019-03-21T01:00:10.495Z,14.70
2019-03-21T01:01:10.484Z,13.40
2019-03-21T01:02:10.500Z,13.50
2019-03-21T01:03:10.467Z,13.30
2019-03-21T01:04:10.457Z,13.30
2019-03-21T01:05:10.460Z,14.00
2019-03-21T01:06:10.430Z,13.50
2019-03-21T01:07:10.421Z,14.10
2019-03-21T01:08:10.437Z,13.20
2019-03-21T01:09:10.398Z,13.20
2019-03-21T01:10:10.443Z,13.20
2019-03-21T01:11:10.394Z,14.30
2019-03-21T01:12:10.370Z,13.40
2019-03-21T01:13:10.359Z,13.70
2019-03-21T01:14:10.362Z,12.70
2019-03-21T01:15:10.357Z,12.50
2019-03-21T01:16:10.326Z,13.20
2019-03-21T01:17:10.330Z,13.00
2019-03-21T01:18:10.304Z,13.10
2019-03-21T01:19:10.306Z,12.70
2019-03-21T01:20:10.282Z,13.40
2019-03-21T01:21:10.297Z,13.40
2019-03-21T01:22:10.262Z,12.70
2019-03-21T01:23:10.270Z,14.40
2019-03-21T01:24:10.241Z,14.30
2019-03-21T01:25:10.230Z,13.70
2019-03-21T01:26:10.222Z,14.30
2019-03-21T01:27:10.233Z,14.80
2019-03-21T01:28:10.199Z,14.60
2019-03-21T01:29:10.205Z,15.10
2019-03-21T01:30:10.180Z,15.70
2019-03-21T01:31:10.244Z,16.10
2019-03-21T01:32:10.157Z,15.80
2019-03-21T01:33:10.163Z,15.50
2019-03-21T01:34:10.137Z,15.70
2019-03-21T01:35:10.148Z,16.60
2019-03-21T01:36:10.116Z,16.80
2019-03-21T01:37:10.105Z,17.00
2019-03-21T01:38:10.093Z,16.10
2019-03-21T01:39:10.115Z,15.80
2019-03-21T01:40:10.089Z,16.60
2019-03-21T01:41:10.068Z,17.80
2019-03-21T01:42:10.052Z,17.30
2019-03-21T01:43:10.047Z,17.70
2019-03-21T01:44:10.049Z,18.70
2019-03-21T01:45:10.020Z,18.40
2019-03-21T01:46:10.027Z,17.10
2019-03-21T01:47:09.998Z,18.60
2019-03-21T01:48:09.987Z,17.40
2019-03-21T01:49:09.976Z,17.30
2019-03-21T01:50:09.985Z,17.70
2019-03-21T01:51:09.959Z,17.00
2019-03-21T01:52:09.975Z,15.80
2019-03-21T01:53:09.937Z,15.70
2019-03-21T01:54:09.938Z,16.10
2019-03-21T01:55:11.423Z,15.10
2019-03-21T01:56:09.922Z,16.30
2019-03-21T01:57:09.895Z,15.00
2019-03-21T01:58:09.900Z,15.60
2019-03-21T01:59:09.873Z,14.70
2019-03-21T02:00:09.859Z,15.10
2019-03-21T02:01:09.850Z,14.40
2019-03-21T02:02:09.855Z,13.90
2019-03-21T02:03:09.837Z,13.40
2019-03-21T02:04:09.828Z,14.00
2019-03-21T02:05:09.828Z,13.60
2019-03-21T02:06:09.797Z,14.50
2019-03-21T02:07:09.785Z,14.00
2019-03-21T02:08:09.791Z,14.80
2019-03-21T02:09:09.764Z,14.80
2019-03-21T02:10:09.757Z,14.50
2019-03-21T02:11:09.761Z,14.50
2019-03-21T02:12:09.733Z,15.00
2019-03-21T02:13:09.728Z,15.10
2019-03-21T02:14:09.732Z,15.10
2019-03-21T02:15:09.699Z,14.60
2019-03-21T02:16:09.689Z,14.10
2019-03-21T02:17:09.688Z,13.60
2019-03-21T02:18:09.680Z,14.20
2019-03-21T02:19:09.657Z,13.70
2019-03-21T02:20:09.664Z,14.00
2019-03-21T02:21:09.635Z,14.00
2019-03-21T02:22:09.622Z,14.50
2019-03-21T02:23:09.612Z,15.20
2019-03-21T02:24:09.637Z,15.90
2019-03-21T02:25:09.594Z,15.80
2019-03-21T02:26:09.596Z,16.20
2019-03-21T02:27:09.571Z,16.20
2019-03-21T02:28:09.560Z,16.50
2019-03-21T02:29:09.582Z,15.50
2019-03-21T02:30:09.559Z,15.80
2019-03-21T02:31:09.530Z,15.80
2019-03-21T02:32:09.522Z,15.90
2019-03-21T02:33:09.513Z,15.40
2019-03-21T02:34:09.518Z,15.50
2019-03-21T02:35:09.488Z,14.70
2019-03-21T02:36:09.491Z,13.50
2019-03-21T02:37:09.465Z,13.70
2019-03-21T02:38:09.459Z,13.20
2019-03-21T02:39:09.446Z,14.20
2019-03-21T02:40:09.447Z,13.70
2019-03-21T02:41:09.426Z,13.90
2019-03-21T02:42:09.424Z,14.20
2019-03-21T02:43:09.397Z,14.00
2019-03-21T02:44:09.394Z,15.20
2019-03-21T02:45:09.811Z,15.10
2019-03-21T02:46:09.397Z,15.20
2019-03-21T02:47:09.354Z,16.00
2019-03-21T02:48:09.372Z,15.40
2019-03-21T02:49:09.373Z,15.10
2019-03-21T02:50:09.340Z,15.80
2019-03-21T02:51:09.323Z,14.70
2019-03-21T02:52:09.321Z,15.80
2019-03-21T02:53:09.291Z,15.80
2019-03-21T02:54:09.280Z,15.10
2019-03-21T02:55:09.268Z,15.00
2019-03-21T02:56:09.278Z,15.60
2019-03-21T02:57:09.267Z,15.80
2019-03-21T02:58:09.253Z,16.20
2019-03-21T02:59:09.231Z,15.30
2019-03-21T03:00:09.216Z,15.80
2019-03-21T03:01:09.220Z,16.40
2019-03-21T03:02:09.209Z,16.80
2019-03-21T03:03:09.181Z,16.60
2019-03-21T03:04:09.188Z,15.80
2019-03-21T03:05:09.162Z,15.90
2019-03-21T03:06:09.172Z,15.20
2019-03-21T03:07:09.143Z,14.80
2019-03-21T03:08:09.154Z,14.00
2019-03-21T03:09:09.143Z,15.50
2019-03-21T03:10:09.115Z,16.50
2019-03-21T03:11:10.842Z,16.90
2019-03-21T03:12:09.092Z,16.70
2019-03-21T03:13:09.078Z,16.80
2019-03-21T03:14:09.073Z,16.40
2019-03-21T03:15:21.877Z,16.10
2019-03-21T03:16:10.066Z,17.10
2019-03-21T03:17:09.274Z,16.00
2019-03-21T03:18:09.027Z,15.40
2019-03-21T03:19:09.022Z,15.30
2019-03-21T03:20:09.016Z,14.40
2019-03-21T03:21:09.014Z,13.70
2019-03-21T03:22:09.012Z,14.20
2019-03-21T03:23:08.996Z,14.60
2019-03-21T03:24:08.970Z,14.10
2019-03-21T03:25:08.951Z,14.80
2019-03-21T03:26:08.969Z,14.80
2019-03-21T03:27:08.953Z,15.50
2019-03-21T03:28:08.929Z,16.10
2019-03-21T03:29:08.915Z,17.70
2019-03-21T03:30:08.898Z,19.00
2019-03-21T03:31:08.891Z,19.00
2019-03-21T03:32:08.893Z,19.90
2019-03-21T03:33:08.888Z,20.70
2019-03-21T03:34:08.855Z,18.50
2019-03-21T03:35:08.850Z,20.10
2019-03-21T03:36:08.851Z,18.10
2019-03-21T03:37:08.836Z,17.10
2019-03-21T03:38:08.812Z,17.90
2019-03-21T03:39:08.831Z,18.90
2019-03-21T03:40:08.793Z,17.60
2019-03-21T03:41:08.795Z,18.40
2019-03-21T03:42:08.773Z,19.50
2019-03-21T03:43:08.764Z,18.80
2019-03-21T03:44:08.748Z,17.80
2019-03-21T03:45:08.755Z,18.80
2019-03-21T03:46:08.769Z,18.70
2019-03-21T03:47:08.722Z,19.60
2019-03-21T03:48:08.716Z,19.10
2019-03-21T03:49:08.702Z,18.30
2019-03-21T03:50:08.701Z,18.70
2019-03-21T03:51:08.684Z,18.10
2019-03-21T03:52:08.710Z,19.00
2019-03-21T03:53:08.660Z,20.00
2019-03-21T03:54:08.650Z,19.60
2019-03-21T03:55:08.636Z,21.90
2019-03-21T03:56:08.628Z,22.40
2019-03-21T03:57:08.616Z,20.80
2019-03-21T03:58:08.663Z,20.80
2019-03-21T03:59:08.612Z,18.90
2019-03-21T04:00:08.588Z,18.10
2019-03-21T04:01:08.574Z,17.80
2019-03-21T04:02:08.580Z,17.60
2019-03-21T04:03:08.555Z,17.40
2019-03-21T04:04:08.575Z,17.30
2019-03-21T04:05:08.533Z,17.50
2019-03-21T04:06:08.525Z,16.20
2019-03-21T04:07:08.511Z,16.00
2019-03-21T04:08:08.501Z,17.00
2019-03-21T04:09:08.493Z,16.40
2019-03-21T04:10:08.530Z,17.70
2019-03-21T04:11:08.490Z,16.70
2019-03-21T04:12:08.483Z,17.30
2019-03-21T04:13:08.464Z,17.60
2019-03-21T04:14:08.443Z,16.40
2019-03-21T04:15:08.428Z,17.90
2019-03-21T04:16:08.422Z,16.90
2019-03-21T04:17:08.445Z,17.50
2019-03-21T04:18:08.420Z,17.40
2019-03-21T04:19:08.395Z,17.30
2019-03-21T04:20:08.383Z,18.00
2019-03-21T04:21:08.368Z,18.60
2019-03-21T04:22:08.357Z,17.00
2019-03-21T04:23:08.357Z,18.90
2019-03-21T04:24:08.364Z,18.90
2019-03-21T04:25:08.336Z,18.80
2019-03-21T04:26:08.319Z,19.00
2019-03-21T04:27:08.324Z,17.20
2019-03-21T04:28:08.294Z,16.90
2019-03-21T04:29:08.288Z,17.20
2019-03-21T04:30:08.275Z,17.00
2019-03-21T04:31:08.282Z,18.10
2019-03-21T04:32:08.273Z,17.10
2019-03-21T04:33:08.242Z,17.90
2019-03-21T04:34:08.243Z,19.50
2019-03-21T04:35:08.225Z,19.40
2019-03-21T04:36:08.214Z,20.60
2019-03-21T04:37:08.228Z,21.10
2019-03-21T04:38:08.208Z,20.20
2019-03-21T04:39:08.184Z,21.00
2019-03-21T04:40:08.170Z,20.20
2019-03-21T04:41:08.166Z,20.60
2019-03-21T04:42:08.172Z,19.60
2019-03-21T04:43:08.169Z,20.60
2019-03-21T04:44:08.134Z,20.00
2019-03-21T04:45:08.124Z,21.30
2019-03-21T04:46:08.113Z,21.00
2019-03-21T04:47:08.122Z,19.60
2019-03-21T04:48:08.089Z,19.50
2019-03-21T04:49:08.106Z,18.40
2019-03-21T04:50:08.072Z,18.90
2019-03-21T04:51:08.059Z,19.70
2019-03-21T04:52:08.066Z,20.30
2019-03-21T04:53:08.041Z,20.90
2019-03-21T04:54:08.028Z,20.80
2019-03-21T04:55:08.042Z,20.70
2019-03-21T04:56:08.008Z,19.70
2019-03-21T04:57:08.014Z,20.10
2019-03-21T04:58:07.992Z,20.30
2019-03-21T04:59:07.986Z,20.00
2019-03-21T05:00:07.965Z,20.10
2019-03-21T05:01:07.973Z,20.90
2019-03-21T05:02:07.945Z,20.60
2019-03-21T05:03:07.958Z,20.70
2019-03-21T05:04:07.927Z,20.70
2019-03-21T05:05:07.915Z,21.40
2019-03-21T05:06:07.903Z,21.20
2019-03-21T05:07:07.902Z,21.00
2019-03-21T05:08:07.887Z,20.20
2019-03-21T05:09:07.888Z,21.10
2019-03-21T05:10:07.863Z,19.30
2019-03-21T05:11:07.853Z,19.20
2019-03-21T05:12:07.844Z,19.00
2019-03-21T05:13:07.857Z,19.30
2019-03-21T05:14:07.823Z,18.30
2019-03-21T05:15:07.838Z,19.20
2019-03-21T05:16:14.707Z,18.30
2019-03-21T05:17:08.791Z,18.70
2019-03-21T05:18:07.778Z,19.60
2019-03-21T05:19:07.799Z,20.90
2019-03-21T05:20:07.764Z,18.30
2019-03-21T05:21:07.766Z,19.00
2019-03-21T05:22:07.742Z,19.50
2019-03-21T05:23:07.732Z,18.60
2019-03-21T05:24:07.719Z,18.50
2019-03-21T05:25:07.718Z,18.50
2019-03-21T05:26:07.717Z,19.20
2019-03-21T05:27:07.706Z,18.60
2019-03-21T05:28:07.676Z,19.20
2019-03-21T05:29:07.667Z,19.20
2019-03-21T05:30:07.656Z,18.80
2019-03-21T05:31:07.648Z,19.10
2019-03-21T05:32:07.637Z,20.60
2019-03-21T05:33:07.679Z,20.40
2019-03-21T05:34:07.640Z,20.20
2019-03-21T05:35:07.606Z,19.10
2019-03-21T05:36:07.603Z,17.80
2019-03-21T05:37:07.619Z,19.30
2019-03-21T05:38:07.596Z,18.90
2019-03-21T05:39:07.567Z,17.90
2019-03-21T05:40:07.584Z,20.00
2019-03-21T05:41:07.552Z,19.40
2019-03-21T05:42:07.545Z,19.50
2019-03-21T05:43:07.552Z,19.10
2019-03-21T05:44:07.513Z,20.00
2019-03-21T05:45:07.537Z,19.00
2019-03-21T05:46:07.497Z,18.20
2019-03-21T05:47:07.501Z,19.70
2019-03-21T05:48:07.499Z,20.60
2019-03-21T05:49:07.464Z,21.00
2019-03-21T05:50:07.460Z,21.80
2019-03-21T05:51:07.454Z,22.20
2019-03-21T05:52:07.430Z,21.80
2019-03-21T05:53:07.436Z,22.60
2019-03-21T05:54:07.463Z,24.00
2019-03-21T05:55:07.413Z,21.80
2019-03-21T05:56:07.392Z,23.50
2019-03-21T05:57:07.385Z,24.10
2019-03-21T05:58:07.368Z,21.90
2019-03-21T05:59:07.356Z,22.10
2019-03-21T06:00:07.468Z,21.10
2019-03-21T06:01:07.345Z,20.30
2019-03-21T06:02:07.322Z,21.60
2019-03-21T06:03:07.317Z,22.20
2019-03-21T06:04:07.342Z,21.80
2019-03-21T06:05:07.300Z,21.40
2019-03-21T06:06:07.300Z,22.20
2019-03-21T06:07:07.292Z,21.40
2019-03-21T06:08:07.288Z,22.70
2019-03-21T06:09:07.281Z,23.10
2019-03-21T06:10:07.242Z,22.70
2019-03-21T06:11:07.269Z,21.60
2019-03-21T06:12:07.217Z,22.90
2019-03-21T06:13:07.223Z,22.30
2019-03-21T06:14:07.214Z,23.20
2019-03-21T06:15:07.188Z,22.60
2019-03-21T06:16:07.216Z,22.10
2019-03-21T06:17:07.173Z,23.30
2019-03-21T06:18:07.218Z,23.60
2019-03-21T06:19:07.169Z,22.60
2019-03-21T06:20:07.137Z,23.10
2019-03-21T06:21:07.143Z,23.30
2019-03-21T06:22:07.136Z,22.50
2019-03-21T06:23:07.109Z,22.50
2019-03-21T06:24:07.222Z,23.00
2019-03-21T06:25:07.094Z,22.20
2019-03-21T06:26:07.159Z,22.00
2019-03-21T06:27:14.372Z,20.70
2019-03-21T06:28:08.058Z,20.30
2019-03-21T06:29:07.060Z,20.70
2019-03-21T06:30:07.078Z,18.70
2019-03-21T06:31:07.032Z,18.30
2019-03-21T06:32:07.056Z,18.80
2019-03-21T06:33:07.011Z,18.40
2019-03-21T06:34:06.993Z,18.60
2019-03-21T06:35:06.980Z,16.90
2019-03-21T06:36:07.061Z,17.70
2019-03-21T06:37:06.966Z,18.10
2019-03-21T06:38:06.949Z,16.80
2019-03-21T06:39:06.943Z,17.40
2019-03-21T06:40:06.926Z,18.30
2019-03-21T06:41:06.921Z,17.10
2019-03-21T06:42:06.943Z,16.90
2019-03-21T06:43:06.904Z,17.80
2019-03-21T06:44:06.910Z,19.10
2019-03-21T06:45:06.889Z,18.90
2019-03-21T06:46:06.872Z,17.90
2019-03-21T06:47:06.858Z,18.00
2019-03-21T06:48:06.860Z,18.90
2019-03-21T06:49:06.864Z,18.50
2019-03-21T06:50:06.840Z,18.80
2019-03-21T06:51:06.819Z,19.30
2019-03-21T06:52:06.805Z,18.80
2019-03-21T06:53:06.801Z,18.60
2019-03-21T06:54:06.780Z,18.50
2019-03-21T06:55:06.787Z,16.70
2019-03-21T06:56:06.769Z,17.90
2019-03-21T06:57:06.768Z,18.00
2019-03-21T06:58:06.741Z,17.50
2019-03-21T06:59:06.730Z,16.90
2019-03-21T07:00:06.730Z,17.50
2019-03-21T07:01:06.728Z,17.50
2019-03-21T07:02:06.695Z,17.70
2019-03-21T07:03:06.709Z,16.40
2019-03-21T07:04:07.619Z,17.20
2019-03-21T07:05:06.676Z,16.50
2019-03-21T07:06:06.674Z,17.40
2019-03-21T07:07:08.396Z,17.60
2019-03-21T07:08:06.642Z,17.60
2019-03-21T07:09:06.619Z,17.10
2019-03-21T07:10:06.660Z,17.60
2019-03-21T07:11:06.604Z,19.40
2019-03-21T07:12:06.587Z,19.00
2019-03-21T07:13:06.598Z,17.80
2019-03-21T07:14:06.565Z,17.70
2019-03-21T07:15:06.581Z,17.40
2019-03-21T07:16:06.552Z,18.10
2019-03-21T07:17:06.539Z,16.80
2019-03-21T07:18:06.532Z,18.40
2019-03-21T07:19:06.540Z,18.60
2019-03-21T07:20:06.501Z,18.70
2019-03-21T07:21:06.493Z,19.10
2019-03-21T07:22:06.515Z,18.60
2019-03-21T07:23:06.473Z,18.20
2019-03-21T07:24:06.469Z,19.60
2019-03-21T07:25:06.467Z,19.00
2019-03-21T07:26:06.839Z,17.20
2019-03-21T07:27:06.431Z,19.40
2019-03-21T07:28:06.421Z,18.70
2019-03-21T07:29:06.440Z,16.80
2019-03-21T07:30:06.395Z,17.70
2019-03-21T07:31:06.402Z,17.00
2019-03-21T07:32:06.378Z,16.60
2019-03-21T07:33:06.372Z,17.10
2019-03-21T07:34:06.355Z,16.60
2019-03-21T07:35:06.390Z,15.60
2019-03-21T07:36:06.338Z,16.90
2019-03-21T07:37:06.327Z,15.80
2019-03-21T07:38:06.310Z,15.60
2019-03-21T07:39:06.308Z,16.60
2019-03-21T07:40:06.310Z,16.20
2019-03-21T07:41:06.299Z,16.90
2019-03-21T07:42:06.290Z,16.00
2019-03-21T07:43:06.261Z,15.90
2019-03-21T07:44:06.250Z,16.20
2019-03-21T07:45:06.253Z,14.60
2019-03-21T07:46:06.236Z,14.60
2019-03-21T07:47:12.662Z,14.90
2019-03-21T07:48:07.211Z,15.70
2019-03-21T07:49:06.230Z,15.40
2019-03-21T07:50:06.193Z,15.20
2019-03-21T07:51:06.394Z,14.90
2019-03-21T07:52:06.231Z,14.70
2019-03-21T07:53:06.186Z,15.30
2019-03-21T07:54:06.162Z,14.50
2019-03-21T07:55:06.145Z,15.30
2019-03-21T07:56:06.125Z,15.80
2019-03-21T07:57:06.114Z,16.20
2019-03-21T07:58:06.121Z,14.90
2019-03-21T07:59:06.107Z,13.70
2019-03-21T08:00:06.079Z,14.50
2019-03-21T08:01:06.091Z,15.10
2019-03-21T08:02:06.058Z,14.20
2019-03-21T08:03:06.048Z,14.00
2019-03-21T08:04:06.065Z,14.30
2019-03-21T08:05:06.036Z,14.50
2019-03-21T08:06:06.033Z,14.50
2019-03-21T08:07:06.005Z,14.80
2019-03-21T08:08:05.994Z,15.20
2019-03-21T08:09:05.989Z,16.10
2019-03-21T08:10:05.994Z,15.40
2019-03-21T08:11:05.992Z,15.70
2019-03-21T08:12:05.953Z,15.40
2019-03-21T08:13:05.942Z,16.00
2019-03-21T08:14:05.943Z,15.10
2019-03-21T08:15:05.928Z,14.90
2019-03-21T08:16:05.917Z,15.20
2019-03-21T08:17:05.936Z,14.50
2019-03-21T08:18:05.890Z,14.80
2019-03-21T08:19:05.880Z,14.60
2019-03-21T08:20:05.873Z,14.40
2019-03-21T08:21:05.870Z,14.00
2019-03-21T08:22:05.852Z,14.60
2019-03-21T08:23:05.850Z,14.20
2019-03-21T08:24:05.840Z,15.00
2019-03-21T08:25:05.814Z,14.70
2019-03-21T08:26:05.802Z,14.30
2019-03-21T08:27:05.820Z,14.30
2019-03-21T08:28:05.793Z,13.80
2019-03-21T08:29:05.784Z,15.10
2019-03-21T08:30:05.771Z,13.20
2019-03-21T08:31:05.768Z,14.00
2019-03-21T08:32:05.749Z,12.90
2019-03-21T08:33:05.739Z,12.80
2019-03-21T08:34:05.718Z,12.30
2019-03-21T08:35:05.727Z,13.60
2019-03-21T08:36:05.748Z,14.30
2019-03-21T08:37:05.732Z,13.60
2019-03-21T08:38:05.673Z,13.80
2019-03-21T08:39:05.711Z,13.90
2019-03-21T08:40:05.653Z,12.80
2019-03-21T08:41:05.647Z,12.50
2019-03-21T08:42:05.653Z,12.20
2019-03-21T08:43:05.649Z,12.10
2019-03-21T08:44:05.614Z,11.50
2019-03-21T08:45:05.632Z,12.70
2019-03-21T08:46:05.592Z,12.90
2019-03-21T08:47:05.574Z,12.50
2019-03-21T08:48:05.591Z,11.60
2019-03-21T08:49:05.577Z,12.60
2019-03-21T08:50:05.547Z,12.90
2019-03-21T08:51:08.479Z,12.70
2019-03-21T08:52:05.525Z,13.60
2019-03-21T08:53:05.562Z,12.00
2019-03-21T08:54:05.522Z,11.80
2019-03-21T08:55:05.514Z,12.10
2019-03-21T08:56:05.481Z,10.80
2019-03-21T08:57:05.514Z,11.60
2019-03-21T08:58:05.465Z,10.90
2019-03-21T08:59:05.449Z,11.30
2019-03-21T09:00:05.444Z,11.90
2019-03-21T09:01:05.453Z,11.70
2019-03-21T09:02:05.446Z,10.90
2019-03-21T09:03:05.439Z,11.70
2019-03-21T09:04:05.401Z,11.60
2019-03-21T09:05:05.385Z,11.80
2019-03-21T09:06:05.376Z,11.90
2019-03-21T09:07:05.403Z,10.60
2019-03-21T09:08:05.353Z,8.30
2019-03-21T09:09:05.341Z,10.20
2019-03-21T09:10:07.857Z,10.10
2019-03-21T09:11:05.322Z,10.20
2019-03-21T09:12:05.326Z,10.20
2019-03-21T09:13:05.336Z,9.30
2019-03-21T09:14:05.513Z,9.20
2019-03-21T09:15:07.961Z,9.70
2019-03-21T09:16:06.097Z,9.10
2019-03-21T09:17:05.262Z,9.00
2019-03-21T09:18:05.270Z,9.20
2019-03-21T09:19:05.249Z,10.10
2019-03-21T09:20:05.252Z,10.30
2019-03-21T09:21:05.238Z,9.30
2019-03-21T09:22:05.202Z,10.20
2019-03-21T09:23:05.195Z,9.50
2019-03-21T09:24:05.311Z,9.30
2019-03-21T09:25:05.190Z,9.10
2019-03-21T09:26:05.178Z,8.60
2019-03-21T09:27:05.152Z,8.60
2019-03-21T09:28:05.152Z,9.50
2019-03-21T09:29:05.149Z,8.50
2019-03-21T09:30:05.146Z,8.80
2019-03-21T09:31:05.104Z,8.30
2019-03-21T09:32:05.138Z,7.70
2019-03-21T09:33:05.093Z,8.40
2019-03-21T09:34:05.079Z,8.20
2019-03-21T09:35:05.065Z,8.10
2019-03-21T09:36:05.082Z,8.10
2019-03-21T09:37:05.068Z,7.60
2019-03-21T09:38:05.056Z,8.50
2019-03-21T09:39:05.029Z,7.20
2019-03-21T09:40:05.012Z,6.50
2019-03-21T09:41:05.006Z,6.80
2019-03-21T09:42:04.991Z,6.70
2019-03-21T09:43:05.006Z,5.90
2019-03-21T09:44:04.993Z,6.50
2019-03-21T09:45:04.978Z,6.00
2019-03-21T09:46:04.948Z,6.60
2019-03-21T09:47:04.937Z,7.00
2019-03-21T09:48:04.941Z,7.00
2019-03-21T09:49:04.935Z,7.80
2019-03-21T09:50:04.909Z,7.10
2019-03-21T09:51:04.910Z,7.60
2019-03-21T09:52:04.934Z,7.60
2019-03-21T09:53:04.877Z,7.20
2019-03-21T09:54:09.513Z,7.40
2019-03-21T09:55:05.866Z,7.30
2019-03-21T09:56:05.057Z,7.70
2019-03-21T09:57:07.605Z,7.00
2019-03-21T09:58:04.843Z,7.50
2019-03-21T09:59:05.606Z,7.20
2019-03-21T10:00:04.798Z,7.10
2019-03-21T10:01:04.792Z,6.70
2019-03-21T10:02:04.780Z,6.10
2019-03-21T10:03:04.784Z,6.10
2019-03-21T10:04:04.773Z,5.90
2019-03-21T10:05:04.746Z,6.50
2019-03-21T10:06:04.748Z,7.10
2019-03-21T10:07:04.722Z,6.70
2019-03-21T10:08:04.740Z,6.80
2019-03-21T10:09:04.723Z,5.80
2019-03-21T10:10:04.700Z,5.80
2019-03-21T10:11:04.703Z,6.10
2019-03-21T10:12:04.678Z,6.00
2019-03-21T10:13:04.678Z,5.20
2019-03-21T10:14:04.651Z,6.70
2019-03-21T10:15:04.658Z,7.00
2019-03-21T10:16:05.666Z,6.00
2019-03-21T10:17:04.614Z,6.00
2019-03-21T10:18:04.628Z,6.70
2019-03-21T10:19:04.609Z,6.10
2019-03-21T10:20:04.584Z,5.40
2019-03-21T10:21:04.660Z,5.50
2019-03-21T10:22:04.561Z,6.80
2019-03-21T10:23:04.634Z,7.70
2019-03-21T10:24:04.560Z,7.20
2019-03-21T10:25:04.541Z,6.80
2019-03-21T10:26:04.529Z,7.20
2019-03-21T10:27:04.535Z,6.80
2019-03-21T10:28:04.521Z,7.60
2019-03-21T10:29:04.491Z,7.20
2019-03-21T10:30:04.558Z,6.90
2019-03-21T10:31:04.464Z,7.20
2019-03-21T10:32:13.917Z,6.70
2019-03-21T10:33:05.464Z,7.40
2019-03-21T10:34:04.441Z,6.70
2019-03-21T10:35:04.434Z,6.80
2019-03-21T10:36:04.438Z,6.50
2019-03-21T10:37:04.407Z,6.90
2019-03-21T10:38:04.394Z,7.00
2019-03-21T10:39:05.112Z,7.80
2019-03-21T10:40:05.168Z,6.60
2019-03-21T10:41:04.358Z,6.50
2019-03-21T10:42:04.371Z,6.90
2019-03-21T10:43:04.340Z,6.50
2019-03-21T10:44:04.342Z,6.60
2019-03-21T10:45:04.336Z,6.90
2019-03-21T10:46:04.336Z,6.00
2019-03-21T10:47:04.316Z,5.80
2019-03-21T10:48:04.284Z,6.00
2019-03-21T10:49:04.300Z,7.40
2019-03-21T10:50:04.275Z,6.30
2019-03-21T10:51:04.268Z,6.80
2019-03-21T10:52:04.279Z,6.90
2019-03-21T10:53:04.232Z,7.00
2019-03-21T10:54:04.234Z,7.50
2019-03-21T10:55:04.217Z,6.80
2019-03-21T10:56:04.198Z,7.00
2019-03-21T10:57:04.188Z,6.70
2019-03-21T10:58:04.190Z,6.80
2019-03-21T10:59:04.166Z,7.40
2019-03-21T11:00:04.255Z,6.50
2019-03-21T11:01:06.109Z,7.00
2019-03-21T11:02:07.562Z,6.20
2019-03-21T11:03:04.123Z,6.50
2019-03-21T11:04:04.126Z,5.70
2019-03-21T11:05:04.105Z,5.70
2019-03-21T11:06:04.127Z,5.90
2019-03-21T11:07:04.084Z,5.60
2019-03-21T11:08:04.082Z,6.30
2019-03-21T11:09:04.082Z,5.80
2019-03-21T11:10:04.075Z,5.50
2019-03-21T11:11:04.604Z,5.30
2019-03-21T11:12:04.030Z,5.40
2019-03-21T11:13:04.015Z,5.80
2019-03-21T11:14:04.021Z,5.90
2019-03-21T11:15:03.997Z,6.20
2019-03-21T11:16:04.045Z,5.90
2019-03-21T11:17:03.972Z,6.00
2019-03-21T11:18:03.965Z,6.10
2019-03-21T11:19:03.967Z,6.90
2019-03-21T11:20:03.948Z,5.90
2019-03-21T11:21:03.931Z,5.80
2019-03-21T11:22:06.716Z,5.40
2019-03-21T11:23:03.907Z,5.70
2019-03-21T11:24:03.942Z,5.90
2019-03-21T11:25:03.884Z,5.10
2019-03-21T11:26:03.875Z,5.50
2019-03-21T11:27:03.865Z,5.70
2019-03-21T11:28:03.898Z,4.50
2019-03-21T11:29:03.845Z,5.30
2019-03-21T11:30:15.409Z,5.20
2019-03-21T11:31:04.823Z,5.30
2019-03-21T11:32:03.814Z,5.50
2019-03-21T11:33:03.803Z,5.20
2019-03-21T11:34:05.652Z,5.00
2019-03-21T11:35:03.788Z,5.10
2019-03-21T11:36:03.795Z,4.90
2019-03-21T11:37:03.757Z,5.50
2019-03-21T11:38:03.748Z,5.40
2019-03-21T11:39:03.737Z,5.30
2019-03-21T11:40:03.732Z,5.10
2019-03-21T11:41:03.770Z,5.80
2019-03-21T11:42:03.745Z,5.60
2019-03-21T11:43:03.704Z,5.20
2019-03-21T11:44:04.638Z,5.20
2019-03-21T11:45:03.673Z,4.50
2019-03-21T11:46:03.673Z,4.70
2019-03-21T11:47:03.664Z,5.20
2019-03-21T11:48:03.689Z,5.30
2019-03-21T11:49:03.627Z,5.00
2019-03-21T11:50:03.630Z,4.60
2019-03-21T11:51:03.669Z,4.80
2019-03-21T11:52:03.657Z,4.40
2019-03-21T11:53:03.584Z,5.10
2019-03-21T11:54:04.626Z,4.80
2019-03-21T11:55:03.652Z,4.80
2019-03-21T11:56:03.590Z,4.50
2019-03-21T11:57:03.590Z,4.80
2019-03-21T11:58:03.588Z,5.00
2019-03-21T11:59:03.518Z,4.80
2019-03-21T12:00:03.543Z,4.90
2019-03-21T12:01:04.108Z,5.60
2019-03-21T12:02:03.489Z,4.70
2019-03-21T12:03:04.327Z,4.70
2019-03-21T12:04:04.110Z,5.10
2019-03-21T12:05:03.494Z,5.30
2019-03-21T12:06:03.467Z,5.50
2019-03-21T12:07:03.447Z,5.20
2019-03-21T12:08:03.420Z,5.20
2019-03-21T12:09:04.118Z,6.30
2019-03-21T12:10:04.111Z,5.10
2019-03-21T12:11:03.416Z,5.30
2019-03-21T12:12:03.434Z,5.60
2019-03-21T12:13:03.373Z,5.60
2019-03-21T12:14:03.357Z,5.90
2019-03-21T12:15:03.354Z,6.30
2019-03-21T12:16:04.160Z,6.00
2019-03-21T12:17:03.349Z,5.70
2019-03-21T12:18:03.338Z,5.70
2019-03-21T12:19:03.302Z,5.90
2019-03-21T12:20:03.293Z,5.30
2019-03-21T12:21:04.156Z,5.90
2019-03-21T12:22:03.333Z,5.60
2019-03-21T12:23:03.279Z,5.50
2019-03-21T12:24:03.254Z,5.50
2019-03-21T12:25:03.259Z,5.30
2019-03-21T12:26:03.236Z,6.10
2019-03-21T12:27:03.220Z,5.60
2019-03-21T12:28:03.210Z,6.20
2019-03-21T12:29:03.210Z,5.70
2019-03-21T12:30:03.184Z,5.70
2019-03-21T12:31:03.178Z,5.80
2019-03-21T12:32:03.179Z,6.10
2019-03-21T12:33:03.159Z,5.70
2019-03-21T12:34:03.158Z,6.10
2019-03-21T12:35:03.153Z,5.60
2019-03-21T12:36:03.121Z,5.70
2019-03-21T12:37:03.116Z,5.90
2019-03-21T12:38:03.119Z,5.50
2019-03-21T12:39:03.087Z,5.60
2019-03-21T12:40:03.111Z,6.10
2019-03-21T12:41:03.083Z,5.40
2019-03-21T12:42:03.059Z,5.60
2019-03-21T12:43:03.086Z,5.50
2019-03-21T12:44:03.690Z,5.50
2019-03-21T12:45:03.022Z,5.50
2019-03-21T12:46:03.057Z,4.90
2019-03-21T12:47:03.126Z,5.40
2019-03-21T12:48:03.004Z,5.90
2019-03-21T12:49:02.985Z,5.90
2019-03-21T12:50:02.985Z,5.30
2019-03-21T12:51:02.973Z,5.20
2019-03-21T12:52:04.633Z,6.00
2019-03-21T12:53:02.935Z,6.10
2019-03-21T12:54:02.948Z,6.20
2019-03-21T12:55:02.941Z,6.20
2019-03-21T12:56:02.945Z,5.60
2019-03-21T12:57:02.915Z,5.50
2019-03-21T12:58:02.887Z,6.20
2019-03-21T12:59:02.875Z,5.70